createdAt,value
2019-02-21T00:02:02.026Z,52.60
2019-02-21T00:04:28.287Z,52.60
2019-02-21T00:06:54.467Z,52.60
2019-02-21T00:09:20.770Z,52.60
2019-02-21T00:11:46.918Z,52.70
2019-02-21T00:14:13.329Z,52.70
2019-02-21T00:16:39.475Z,52.80
2019-02-21T00:19:05.652Z,52.80
2019-02-21T00:21:31.820Z,52.80
2019-02-21T00:23:58.048Z,52.80
2019-02-21T00:26:24.203Z,52.90
2019-02-21T00:28:50.392Z,52.90
2019-02-21T00:31:16.548Z,52.90
2019-02-21T00:33:42.733Z,53.10
2019-02-21T00:36:08.943Z,53.00
2019-02-21T00:38:35.114Z,53.00
2019-02-21T00:41:01.274Z,53.10
2019-02-21T00:43:27.504Z,53.20
2019-02-21T00:45:53.732Z,53.30
2019-02-21T00:48:19.862Z,53.30
2019-02-21T00:50:46.048Z,53.40
2019-02-21T00:53:12.196Z,53.40
2019-02-21T00:55:38.420Z,53.30
2019-02-21T00:58:04.576Z,53.30
2019-02-21T01:00:30.760Z,53.40
2019-02-21T01:02:56.921Z,53.40
2019-02-21T01:05:23.095Z,53.50
2019-02-21T01:07:49.250Z,53.50
2019-02-21T01:10:15.713Z,53.60
2019-02-21T01:12:41.971Z,53.60
2019-02-21T01:15:08.639Z,53.60
2019-02-21T01:17:34.801Z,53.60
2019-02-21T01:20:01.090Z,53.60
2019-02-21T01:22:27.342Z,53.60
2019-02-21T01:24:53.541Z,53.60
2019-02-21T01:27:19.743Z,53.70
2019-02-21T01:29:45.918Z,53.60
2019-02-21T01:32:12.091Z,53.60
2019-02-21T01:34:38.266Z,53.60
2019-02-21T01:37:04.449Z,53.60
2019-02-21T01:39:30.620Z,53.50
2019-02-21T01:41:56.801Z,53.60
2019-02-21T01:44:23.060Z,54.10
2019-02-21T01:46:49.222Z,53.50
2019-02-21T01:49:15.427Z,53.60
2019-02-21T01:51:41.575Z,53.60
2019-02-21T01:54:07.766Z,53.70
2019-02-21T01:56:34.012Z,53.70
2019-02-21T01:59:00.200Z,53.60
2019-02-21T02:01:26.349Z,53.70
2019-02-21T02:03:52.510Z,53.60
2019-02-21T02:06:19.180Z,53.60
2019-02-21T02:08:45.849Z,53.50
2019-02-21T02:11:12.266Z,53.60
2019-02-21T02:13:47.458Z,53.60
2019-02-21T02:16:13.649Z,53.60
2019-02-21T02:18:40.163Z,53.50
2019-02-21T02:21:06.625Z,53.60
2019-02-21T02:23:32.793Z,53.70
2019-02-21T02:25:59.005Z,53.60
2019-02-21T02:28:25.147Z,53.70
2019-02-21T02:30:51.344Z,53.80
2019-02-21T02:33:17.488Z,53.80
2019-02-21T02:35:43.685Z,53.90
2019-02-21T02:38:09.931Z,53.90
2019-02-21T02:40:36.129Z,53.90
2019-02-21T02:43:02.303Z,54.00
2019-02-21T02:45:28.575Z,54.10
2019-02-21T02:47:54.745Z,53.90
2019-02-21T02:50:20.924Z,54.30
2019-02-21T02:52:47.111Z,54.30
2019-02-21T02:55:13.299Z,54.40
2019-02-21T02:57:39.590Z,54.40
2019-02-21T03:00:12.937Z,54.30
2019-02-21T03:02:39.111Z,54.90
2019-02-21T03:05:05.421Z,54.20
2019-02-21T03:07:31.582Z,54.30
2019-02-21T03:09:57.758Z,54.20
2019-02-21T03:12:23.968Z,54.20
2019-02-21T03:14:50.141Z,54.30
2019-02-21T03:17:16.654Z,54.30
2019-02-21T03:19:42.817Z,54.30
2019-02-21T03:22:09.254Z,54.90
2019-02-21T03:24:35.415Z,54.30
2019-02-21T03:27:01.592Z,54.30
2019-02-21T03:29:27.744Z,54.30
2019-02-21T03:31:55.851Z,54.40
2019-02-21T03:34:22.071Z,54.40
2019-02-21T03:36:48.256Z,54.40
2019-02-21T03:39:14.841Z,54.40
2019-02-21T03:41:41.010Z,54.50
2019-02-21T03:44:07.180Z,54.50
2019-02-21T03:46:33.360Z,54.50
2019-02-21T03:48:59.529Z,55.00
2019-02-21T03:51:25.757Z,54.90
2019-02-21T03:53:51.969Z,54.90
2019-02-21T03:56:21.020Z,54.90
2019-02-21T03:58:47.165Z,54.90
2019-02-21T04:01:15.814Z,54.90
2019-02-21T04:03:42.053Z,55.40
2019-02-21T04:06:08.241Z,54.70
2019-02-21T04:08:34.448Z,54.70
2019-02-21T04:11:04.523Z,54.80
2019-02-21T04:13:30.735Z,54.80
2019-02-21T04:15:56.916Z,54.90
2019-02-21T04:18:23.072Z,54.90
2019-02-21T04:20:49.601Z,55.00
2019-02-21T04:23:15.772Z,55.10
2019-02-21T04:25:41.933Z,55.00
2019-02-21T04:28:08.117Z,55.00
2019-02-21T04:30:34.273Z,54.90
2019-02-21T04:33:07.131Z,54.90
2019-02-21T04:35:33.290Z,54.70
2019-02-21T04:37:59.794Z,54.60
2019-02-21T04:40:26.244Z,54.50
2019-02-21T04:42:52.440Z,54.50
2019-02-21T04:45:18.590Z,54.50
2019-02-21T04:47:44.805Z,54.50
2019-02-21T04:50:10.970Z,54.50
2019-02-21T04:52:37.172Z,54.50
2019-02-21T04:55:04.783Z,54.70
2019-02-21T04:57:31.068Z,54.70
2019-02-21T04:59:57.239Z,55.40
2019-02-21T05:02:28.931Z,54.90
2019-02-21T05:04:51.494Z,55.00
2019-02-21T05:07:17.989Z,55.00
2019-02-21T05:09:44.136Z,55.10
2019-02-21T05:12:10.315Z,55.10
2019-02-21T05:14:36.460Z,55.10
2019-02-21T05:17:02.649Z,55.10
2019-02-21T05:19:28.835Z,55.20
2019-02-21T05:21:55.136Z,55.10
2019-02-21T05:24:21.308Z,55.20
2019-02-21T05:27:01.541Z,55.20
2019-02-21T05:29:27.729Z,55.20
2019-02-21T05:32:13.790Z,55.10
2019-02-21T05:34:44.944Z,55.20
2019-02-21T05:37:25.621Z,55.10
2019-02-21T05:40:10.462Z,55.20
2019-02-21T05:42:41.483Z,55.20
2019-02-21T05:45:10.983Z,55.10
2019-02-21T05:47:42.183Z,55.10
2019-02-21T05:50:15.905Z,55.20
2019-02-21T05:52:49.770Z,55.20
2019-02-21T05:55:17.825Z,55.20
2019-02-21T05:58:02.445Z,55.20
2019-02-21T06:00:33.489Z,55.30
2019-02-21T06:03:01.703Z,55.30
2019-02-21T06:05:35.684Z,55.40
2019-02-21T06:08:07.129Z,55.40
2019-02-21T06:10:38.299Z,55.30
2019-02-21T06:13:09.119Z,55.40
2019-02-21T06:15:37.199Z,55.40
2019-02-21T06:18:08.239Z,55.50
2019-02-21T06:20:36.284Z,55.50
2019-02-21T06:23:04.375Z,55.60
2019-02-21T06:25:38.124Z,55.30
2019-02-21T06:28:12.221Z,55.70
2019-02-21T06:30:43.452Z,55.60
2019-02-21T06:33:09.725Z,55.60
2019-02-21T06:35:35.864Z,55.60
2019-02-21T06:38:02.034Z,55.70
2019-02-21T06:40:28.203Z,55.70
2019-02-21T06:42:54.371Z,55.80
2019-02-21T06:45:20.855Z,55.80
2019-02-21T06:47:47.020Z,55.80
2019-02-21T06:50:14.536Z,55.80
2019-02-21T06:52:40.890Z,55.80
2019-02-21T06:55:07.124Z,55.80
2019-02-21T06:57:33.286Z,55.80
2019-02-21T06:59:59.510Z,55.80
2019-02-21T07:02:28.038Z,55.70
2019-02-21T07:07:20.385Z,55.70
2019-02-21T07:09:46.579Z,55.60
2019-02-21T07:12:12.766Z,55.60
2019-02-21T07:14:38.969Z,55.70
2019-02-21T07:17:05.150Z,55.60
2019-02-21T07:19:31.416Z,55.50
2019-02-21T07:21:57.560Z,55.50
2019-02-21T07:24:24.323Z,55.50
2019-02-21T07:26:50.480Z,55.40
2019-02-21T07:29:16.660Z,55.30
2019-02-21T07:31:42.820Z,55.30
2019-02-21T07:34:08.999Z,55.40
2019-02-21T07:36:35.149Z,55.40
2019-02-21T07:39:13.657Z,55.40
2019-02-21T07:41:29.707Z,56.00
2019-02-21T07:43:55.928Z,55.50
2019-02-21T07:46:22.098Z,55.40
2019-02-21T07:48:48.312Z,55.40
2019-02-21T07:51:14.498Z,55.10
2019-02-21T07:53:40.710Z,54.80
2019-02-21T07:56:06.918Z,54.50
2019-02-21T07:58:33.100Z,54.30
2019-02-21T08:00:59.260Z,54.20
2019-02-21T08:03:30.310Z,54.20
2019-02-21T08:05:53.874Z,54.20
2019-02-21T08:08:21.063Z,54.10
2019-02-21T08:10:47.250Z,54.20
2019-02-21T08:13:13.694Z,54.10
2019-02-21T08:15:39.894Z,54.00
2019-02-21T08:18:06.035Z,54.00
2019-02-21T08:20:34.727Z,53.90
2019-02-21T08:23:02.860Z,53.90
2019-02-21T08:25:28.385Z,53.90
2019-02-21T08:27:55.223Z,53.50
2019-02-21T08:30:21.663Z,53.40
2019-02-21T08:33:01.540Z,53.20
2019-02-21T08:35:28.285Z,53.00
2019-02-21T08:37:54.443Z,52.60
2019-02-21T08:40:20.678Z,52.50
2019-02-21T08:42:46.828Z,52.10
2019-02-21T08:45:13.022Z,52.00
2019-02-21T08:47:39.180Z,52.10
2019-02-21T08:50:05.587Z,51.90
2019-02-21T08:52:31.743Z,51.90
2019-02-21T08:55:00.464Z,52.00
2019-02-21T08:57:26.032Z,51.80
2019-02-21T08:59:52.204Z,51.80
2019-02-21T09:02:18.382Z,51.90
2019-02-21T09:04:44.567Z,52.10
2019-02-21T09:07:10.826Z,51.60
2019-02-21T09:09:37.009Z,51.00
2019-02-21T09:12:05.554Z,51.60
2019-02-21T09:14:31.269Z,51.50
2019-02-21T09:16:57.449Z,51.40
2019-02-21T09:19:23.776Z,51.60
2019-02-21T09:21:49.931Z,51.80
2019-02-21T09:24:35.148Z,52.10
2019-02-21T09:26:44.218Z,52.20
2019-02-21T09:29:10.385Z,51.40
2019-02-21T09:31:36.582Z,50.80
2019-02-21T09:34:02.739Z,50.30
2019-02-21T09:36:28.940Z,49.70
2019-02-21T09:38:55.101Z,49.20
2019-02-21T09:41:21.307Z,49.10
2019-02-21T09:43:47.485Z,48.50
2019-02-21T09:46:13.657Z,48.30
2019-02-21T09:48:39.859Z,48.50
2019-02-21T09:51:06.042Z,48.50
2019-02-21T09:53:32.215Z,48.70
2019-02-21T09:55:58.412Z,48.80
2019-02-21T09:58:24.582Z,48.90
2019-02-21T10:00:50.766Z,49.30
2019-02-21T10:03:17.276Z,49.50
2019-02-21T10:05:43.475Z,49.60
2019-02-21T10:08:09.614Z,49.30
2019-02-21T10:10:35.853Z,49.30
2019-02-21T10:13:02.007Z,49.20
2019-02-21T10:15:28.204Z,49.30
2019-02-21T10:17:54.379Z,49.10
2019-02-21T10:20:21.178Z,49.00
2019-02-21T10:22:47.381Z,48.90
2019-02-21T10:25:17.624Z,48.70
2019-02-21T10:27:43.774Z,48.40
2019-02-21T10:30:14.056Z,48.20
2019-02-21T10:32:40.327Z,47.70
2019-02-21T10:35:06.788Z,47.90
2019-02-21T10:37:32.976Z,47.90
2019-02-21T10:39:59.165Z,47.50
2019-02-21T10:42:25.363Z,47.30
2019-02-21T10:44:51.574Z,47.40
2019-02-21T10:47:17.730Z,47.70
2019-02-21T10:49:44.111Z,47.60
2019-02-21T10:52:10.327Z,47.60
2019-02-21T10:54:36.468Z,47.50
2019-02-21T10:57:02.684Z,47.80
2019-02-21T10:59:28.837Z,48.00
2019-02-21T11:01:55.012Z,48.20
2019-02-21T11:04:21.168Z,48.60
2019-02-21T11:06:47.374Z,49.00
2019-02-21T11:09:19.150Z,49.30
2019-02-21T11:11:45.352Z,49.80
2019-02-21T11:14:11.503Z,50.30
2019-02-21T11:16:37.711Z,50.70
2019-02-21T11:19:03.889Z,51.10
2019-02-21T11:21:30.067Z,51.60
2019-02-21T11:23:56.253Z,52.00
2019-02-21T11:26:22.473Z,52.40
2019-02-21T11:28:48.605Z,52.90
2019-02-21T11:31:14.813Z,53.30
2019-02-21T11:33:41.265Z,53.50
2019-02-21T11:36:07.485Z,53.20
2019-02-21T11:38:33.654Z,53.20
2019-02-21T11:41:02.029Z,52.80
2019-02-21T11:43:28.259Z,52.60
2019-02-21T11:45:57.309Z,52.40
2019-02-21T11:48:22.609Z,52.20
2019-02-21T11:50:48.845Z,52.10
2019-02-21T11:53:15.057Z,52.20
2019-02-21T11:55:41.210Z,52.30
2019-02-21T11:58:07.669Z,52.60
2019-02-21T12:00:34.019Z,52.70
2019-02-21T12:03:00.396Z,52.80
2019-02-21T12:05:32.342Z,52.80
2019-02-21T12:07:54.657Z,52.70
2019-02-21T12:10:21.014Z,52.50
2019-02-21T12:12:47.216Z,52.40
2019-02-21T12:15:15.624Z,52.30
2019-02-21T12:17:42.995Z,52.20
2019-02-21T12:20:13.885Z,52.20
2019-02-21T12:22:40.068Z,52.40
2019-02-21T12:25:09.853Z,52.80
2019-02-21T12:27:36.049Z,53.20
2019-02-21T12:30:05.622Z,53.30
2019-02-21T12:32:31.866Z,53.30
2019-02-21T12:34:58.076Z,53.00
2019-02-21T12:37:24.252Z,53.00
2019-02-21T12:39:50.401Z,52.70
2019-02-21T12:42:16.586Z,52.70
2019-02-21T12:44:42.733Z,52.00
2019-02-21T12:47:10.472Z,51.50
2019-02-21T12:49:36.678Z,51.30
2019-02-21T12:52:04.876Z,51.30
2019-02-21T12:54:31.037Z,51.00
2019-02-21T12:57:03.434Z,50.30
2019-02-21T12:59:29.596Z,50.20
2019-02-21T13:01:55.801Z,49.80
2019-02-21T13:04:22.003Z,49.30
2019-02-21T13:06:48.175Z,49.10
2019-02-21T13:09:14.402Z,48.90
2019-02-21T13:11:40.558Z,49.10
2019-02-21T13:14:06.738Z,49.10
2019-02-21T13:16:32.904Z,49.10
2019-02-21T13:18:59.084Z,48.90
2019-02-21T13:21:25.292Z,49.40
2019-02-21T13:23:51.535Z,48.60
2019-02-21T13:26:17.995Z,48.20
2019-02-21T13:28:44.193Z,47.80
2019-02-21T13:31:10.380Z,47.50
2019-02-21T13:33:36.563Z,47.70
2019-02-21T13:36:03.650Z,47.80
2019-02-21T13:38:29.833Z,48.10
2019-02-21T13:40:55.996Z,47.90
2019-02-21T13:43:22.226Z,47.90
2019-02-21T13:45:48.383Z,48.10
2019-02-21T13:48:14.601Z,48.10
2019-02-21T13:50:40.724Z,47.70
2019-02-21T13:53:07.068Z,47.50
2019-02-21T13:55:33.587Z,47.40
2019-02-21T13:57:59.785Z,47.30
2019-02-21T14:00:25.955Z,47.20
2019-02-21T14:02:52.158Z,47.40
2019-02-21T14:05:18.321Z,47.30
2019-02-21T14:07:44.868Z,47.40
2019-02-21T14:10:12.430Z,47.50
2019-02-21T14:12:38.661Z,47.30
2019-02-21T14:15:16.578Z,47.40
2019-02-21T14:17:42.745Z,47.60
2019-02-21T14:20:08.894Z,47.60
2019-02-21T14:22:35.128Z,47.60
2019-02-21T14:25:01.308Z,47.60
2019-02-21T14:27:27.440Z,47.70
2019-02-21T14:29:53.658Z,47.40
2019-02-21T14:32:19.811Z,47.80
2019-02-21T14:34:45.992Z,47.90
2019-02-21T14:37:12.149Z,48.10
2019-02-21T14:39:38.344Z,48.00
2019-02-21T14:42:04.623Z,48.00
2019-02-21T14:44:30.979Z,48.10
2019-02-21T14:46:57.135Z,48.00
2019-02-21T14:49:25.610Z,48.00
2019-02-21T14:51:51.461Z,47.80
2019-02-21T14:54:17.662Z,47.80
2019-02-21T14:56:43.818Z,47.90
2019-02-21T14:59:10.439Z,47.70
2019-02-21T15:01:36.607Z,47.90
2019-02-21T15:04:04.340Z,47.80
2019-02-21T15:06:30.471Z,47.80
2019-02-21T15:08:56.662Z,47.80
2019-02-21T15:11:22.828Z,48.00
2019-02-21T15:13:49.013Z,48.00
2019-02-21T15:16:15.183Z,48.20
2019-02-21T15:18:41.366Z,48.30
2019-02-21T15:21:07.532Z,48.50
2019-02-21T15:23:33.720Z,48.60
2019-02-21T15:25:59.891Z,48.70
2019-02-21T15:28:26.102Z,48.90
2019-02-21T15:30:52.243Z,48.90
2019-02-21T15:33:18.428Z,49.00
2019-02-21T15:35:47.361Z,49.00
2019-02-21T15:38:20.023Z,49.10
2019-02-21T15:40:43.395Z,49.20
2019-02-21T15:43:09.695Z,49.20
2019-02-21T15:45:35.866Z,49.30
2019-02-21T15:48:02.177Z,49.40
2019-02-21T15:50:28.418Z,49.50
2019-02-21T15:52:55.495Z,49.40
2019-02-21T15:55:21.979Z,49.50
2019-02-21T15:57:48.151Z,49.70
2019-02-21T16:00:22.487Z,49.60
2019-02-21T16:02:48.692Z,49.70
2019-02-21T16:05:15.339Z,49.70
2019-02-21T16:07:41.607Z,49.80
2019-02-21T16:10:15.629Z,49.90
2019-02-21T16:12:42.277Z,49.90
2019-02-21T16:15:16.496Z,50.00
2019-02-21T16:17:40.266Z,50.10
2019-02-21T16:20:14.139Z,50.20
2019-02-21T16:22:41.217Z,50.20
2019-02-21T16:25:26.866Z,50.30
2019-02-21T16:27:55.203Z,50.40
2019-02-21T16:30:22.122Z,50.40
2019-02-21T16:32:48.523Z,50.50
2019-02-21T16:35:14.989Z,50.40
2019-02-21T16:37:41.157Z,50.50
2019-02-21T16:40:12.585Z,50.70
2019-02-21T16:42:39.175Z,50.60
2019-02-21T16:45:12.305Z,50.70
2019-02-21T16:47:38.502Z,50.70
2019-02-21T16:50:09.303Z,50.70
2019-02-21T16:52:36.839Z,50.80
2019-02-21T16:55:08.861Z,50.80
2019-02-21T16:57:35.227Z,50.90
2019-02-21T17:00:01.405Z,50.90
2019-02-21T17:02:27.569Z,51.00
2019-02-21T17:04:55.735Z,51.00
2019-02-21T17:07:22.000Z,51.10
2019-02-21T17:09:48.379Z,51.20
2019-02-21T17:12:14.590Z,51.20
2019-02-21T17:14:43.225Z,51.30
2019-02-21T17:17:09.573Z,51.30
2019-02-21T17:19:35.782Z,51.40
2019-02-21T17:22:01.987Z,51.60
2019-02-21T17:24:28.682Z,51.80
2019-02-21T17:26:54.824Z,52.00
2019-02-21T17:29:21.106Z,52.30
2019-02-21T17:31:47.379Z,52.40
2019-02-21T17:34:13.961Z,52.40
2019-02-21T17:36:40.582Z,52.50
2019-02-21T17:39:07.419Z,52.60
2019-02-21T17:41:33.619Z,52.70
2019-02-21T17:43:59.878Z,52.60
2019-02-21T17:46:26.126Z,52.80
2019-02-21T17:48:52.299Z,52.80
2019-02-21T17:51:18.478Z,52.80
2019-02-21T17:53:44.996Z,52.80
2019-02-21T17:56:11.197Z,52.80
2019-02-21T17:58:37.404Z,52.90
2019-02-21T18:01:04.687Z,52.90
2019-02-21T18:03:30.862Z,53.10
2019-02-21T18:05:57.102Z,53.00
2019-02-21T18:08:25.826Z,53.10
2019-02-21T18:10:52.033Z,53.30
2019-02-21T18:13:18.179Z,53.30
2019-02-21T18:15:44.688Z,53.50
2019-02-21T18:18:10.860Z,53.60
2019-02-21T18:20:37.068Z,53.70
2019-02-21T18:23:03.500Z,53.80
2019-02-21T18:25:44.010Z,53.80
2019-02-21T18:28:10.585Z,53.90
2019-02-21T18:30:36.998Z,53.90
2019-02-21T18:33:03.710Z,54.00
2019-02-21T18:35:29.879Z,54.10
2019-02-21T18:37:56.180Z,54.20
2019-02-21T18:40:25.507Z,54.30
2019-02-21T18:42:53.761Z,54.30
2019-02-21T18:45:20.023Z,54.40
2019-02-21T18:47:46.563Z,54.00
2019-02-21T18:50:15.023Z,54.60
2019-02-21T18:52:41.869Z,55.00
2019-02-21T18:55:09.131Z,54.90
2019-02-21T18:57:35.432Z,55.10
2019-02-21T19:00:05.790Z,55.30
2019-02-21T19:02:31.948Z,55.20
2019-02-21T19:04:58.359Z,55.40
2019-02-21T19:07:24.562Z,55.60
2019-02-21T19:09:50.734Z,55.80
2019-02-21T19:12:16.915Z,56.40
2019-02-21T19:14:43.857Z,55.90
2019-02-21T19:17:10.094Z,56.10
2019-02-21T19:19:36.347Z,55.90
2019-02-21T19:22:02.766Z,56.40
2019-02-21T19:24:29.102Z,56.40
2019-02-21T19:26:55.547Z,56.60
2019-02-21T19:29:21.843Z,56.60
2019-02-21T19:31:48.244Z,56.60
2019-02-21T19:34:14.457Z,56.80
2019-02-21T19:36:40.818Z,56.90
2019-02-21T19:39:07.572Z,56.90
2019-02-21T19:41:33.960Z,57.00
2019-02-21T19:44:08.466Z,57.20
2019-02-21T19:46:28.540Z,57.20
2019-02-21T19:48:55.018Z,57.30
2019-02-21T19:51:21.625Z,57.50
2019-02-21T19:53:47.930Z,57.50
2019-02-21T19:56:14.400Z,57.70
2019-02-21T19:58:40.766Z,57.80
2019-02-21T20:01:07.035Z,57.20
2019-02-21T20:03:33.324Z,57.90
2019-02-21T20:05:59.514Z,58.20
2019-02-21T20:08:26.007Z,58.30
2019-02-21T20:10:52.528Z,58.30
2019-02-21T20:13:18.950Z,58.40
2019-02-21T20:15:45.150Z,58.70
2019-02-21T20:18:14.403Z,58.70
2019-02-21T20:20:40.709Z,58.70
2019-02-21T20:23:06.923Z,58.90
2019-02-21T20:25:33.591Z,58.70
2019-02-21T20:27:59.801Z,58.80
2019-02-21T20:30:26.104Z,59.20
2019-02-21T20:32:52.496Z,59.10
2019-02-21T20:35:18.827Z,59.40
2019-02-21T20:37:45.246Z,59.40
2019-02-21T20:40:11.934Z,59.30
2019-02-21T20:42:38.537Z,59.30
2019-02-21T20:45:10.700Z,59.40
2019-02-21T20:47:37.007Z,59.50
2019-02-21T20:50:06.575Z,59.70
2019-02-21T20:52:33.245Z,59.90
2019-02-21T20:54:59.416Z,59.90
2019-02-21T20:57:25.912Z,59.90
2019-02-21T20:59:52.081Z,59.80
2019-02-21T21:02:18.379Z,59.90
2019-02-21T21:04:44.548Z,60.10
2019-02-21T21:07:10.735Z,60.40
2019-02-21T21:09:37.305Z,60.70
2019-02-21T21:12:03.486Z,60.80
2019-02-21T21:14:30.428Z,61.00
2019-02-21T21:16:56.670Z,62.40
2019-02-21T21:19:23.079Z,61.70
2019-02-21T21:21:49.249Z,61.70
2019-02-21T21:24:15.396Z,62.20
2019-02-21T21:26:41.588Z,62.30
2019-02-21T21:29:07.745Z,61.90
2019-02-21T21:31:33.992Z,61.80
2019-02-21T21:34:00.202Z,62.30
2019-02-21T21:36:26.392Z,62.40
2019-02-21T21:38:54.285Z,62.70
2019-02-21T21:41:21.470Z,62.80
2019-02-21T21:43:47.660Z,63.00
2019-02-21T21:46:13.835Z,63.10
2019-02-21T21:48:40.093Z,63.20
2019-02-21T21:51:06.276Z,63.30
2019-02-21T21:53:32.469Z,63.50
2019-02-21T21:55:58.650Z,63.50
2019-02-21T21:58:24.829Z,63.90
2019-02-21T22:00:51.037Z,64.00
2019-02-21T22:03:17.213Z,64.20
2019-02-21T22:05:43.442Z,64.60
2019-02-21T22:08:09.584Z,65.10
2019-02-21T22:10:35.763Z,64.80
2019-02-21T22:13:10.038Z,65.00
2019-02-21T22:15:36.215Z,65.60
2019-02-21T22:18:02.609Z,66.50
2019-02-21T22:20:28.793Z,66.00
2019-02-21T22:22:54.951Z,66.20
2019-02-21T22:25:21.155Z,66.30
2019-02-21T22:27:47.774Z,66.60
2019-02-21T22:30:16.646Z,67.20
2019-02-21T22:32:42.854Z,67.70
2019-02-21T22:35:09.206Z,67.90
2019-02-21T22:37:35.669Z,68.20
2019-02-21T22:40:05.017Z,68.60
2019-02-21T22:42:31.198Z,69.00
2019-02-21T22:44:57.353Z,69.30
2019-02-21T22:47:23.585Z,69.40
2019-02-21T22:49:49.716Z,69.20
2019-02-21T22:52:17.119Z,69.90
2019-02-21T22:54:43.449Z,70.40
2019-02-21T22:57:09.697Z,70.50
2019-02-21T22:59:35.973Z,70.90
2019-02-21T23:02:02.372Z,71.30
2019-02-21T23:04:33.332Z,71.60
2019-02-21T23:07:25.961Z,71.80
2019-02-21T23:09:52.114Z,72.20
2019-02-21T23:12:18.302Z,72.90
2019-02-21T23:14:44.459Z,73.50
2019-02-21T23:17:10.810Z,73.80
2019-02-21T23:19:37.376Z,74.20
2019-02-21T23:22:03.834Z,75.30
2019-02-21T23:24:29.970Z,74.80
2019-02-21T23:26:56.262Z,75.10
2019-02-21T23:29:22.451Z,74.80
2019-02-21T23:31:48.654Z,74.80
2019-02-21T23:34:16.751Z,74.80
2019-02-21T23:36:49.098Z,74.60
2019-02-21T23:39:26.444Z,74.80
2019-02-21T23:41:52.871Z,74.90
2019-02-21T23:44:19.046Z,74.50
2019-02-21T23:46:46.129Z,74.50
2019-02-21T23:49:13.952Z,74.40
2019-02-21T23:51:40.337Z,74.40
2019-02-21T23:54:06.587Z,74.30
2019-02-21T23:56:32.754Z,74.30
2019-02-21T23:58:58.947Z,74.00
